F/V Harvestor — WDC8229 — position and weather

sailwx.info

Track history (hours):
 
Tides and Currents Weather Stations Pressure Air Temp Water Temp Dewpoint Dewpoint Depression Visibility Wind Speed Wind Dir Waves Ship Positions

F/V Harvestor

Owner: F/V HARVESTOR INC., EDMONDS, WA. More information available from US FCC via Universal Licensing System and Coast Guard Vessel Documentation Center.

Last reported at 2017-Feb-23 08:34 UTC. Time now 2017-Feb-23 09:28 UTC.
Position N 47°38' W 122°23'.

Length 40 m.

Type: Fishing. MMSI: 367083650.

Date/timePositionNaut miles runAvg speedWind from/ knotsBaromVisibWave heightAir tempDewpointWater temp
2017-Feb-23 08:34N 47°38' W 122°23'0 0.0
2017-Feb-23 07:34N 47°38' W 122°23'0 0.0
2017-Feb-23 06:34N 47°38' W 122°23'0 0.0
2017-Feb-23 05:34N 47°38' W 122°23'0 0.0
2017-Feb-23 04:34N 47°38' W 122°23'0 0.0
2017-Feb-23 03:34N 47°38' W 122°23'0 0.0
2017-Feb-23 02:34N 47°38' W 122°23'0 0.0
2017-Feb-23 01:34N 47°38' W 122°23'0 0.0
2017-Feb-23 00:34N 47°38' W 122°23'0 0.0
2017-Feb-22 23:34N 47°38' W 122°23'2 2.1
2017-Feb-22 22:34N 47°37' W 122°25'5 5.2
2017-Feb-22 21:34N 47°34' W 122°32'0 0.0
2017-Feb-22 20:34N 47°34' W 122°32'0 0.0
2017-Feb-22 19:34N 47°34' W 122°32'0 0.0
2017-Feb-22 18:34N 47°34' W 122°32'0 0.0
2017-Feb-22 17:34N 47°34' W 122°32'3 3.1
2017-Feb-22 16:34N 47°35' W 122°28'4 4.3
2017-Feb-22 15:34N 47°38' W 122°23'0 0.0
2017-Feb-22 14:34N 47°38' W 122°23'0 0.0
2017-Feb-22 13:34N 47°38' W 122°23'0 0.0
2017-Feb-22 12:34N 47°38' W 122°23'0 0.0
2017-Feb-22 11:34N 47°38' W 122°23'0 0.0
2017-Feb-22 10:34N 47°38' W 122°23'0 0.0
2017-Feb-22 09:34N 47°38' W 122°23'0 0.0
2017-Feb-22 08:34N 47°38' W 122°23'0 0.0
2017-Feb-22 07:34N 47°38' W 122°23'0 0.0
2017-Feb-22 06:34N 47°38' W 122°23'0 0.0
2017-Feb-22 05:34N 47°38' W 122°23'0 0.0
2017-Feb-22 04:34N 47°38' W 122°23'0 0.0
2017-Feb-22 03:34N 47°38' W 122°23'0 0.0
2017-Feb-22 02:34N 47°38' W 122°23'0 0.0
2017-Feb-22 01:34N 47°38' W 122°23'0 0.0
2017-Feb-22 00:34N 47°38' W 122°23'0 0.0
2017-Feb-21 23:33N 47°38' W 122°23'0 0.0
2017-Feb-21 22:34N 47°38' W 122°23'0 0.0
2017-Feb-21 21:34N 47°38' W 122°23'0 0.0
2017-Feb-21 20:34N 47°38' W 122°23'0 0.0
2017-Feb-21 19:34N 47°38' W 122°23'0 0.0
2017-Feb-21 18:34N 47°38' W 122°23'0 0.0
2017-Feb-21 17:34N 47°38' W 122°23'0 0.0
2017-Feb-21 16:34N 47°38' W 122°23'0 0.0
2017-Feb-21 15:34N 47°38' W 122°23'0 0.0
2017-Feb-21 14:34N 47°38' W 122°23'0 0.0
2017-Feb-21 13:34N 47°38' W 122°23'0 0.0
2017-Feb-21 12:34N 47°38' W 122°23'0 0.0
2017-Feb-21 11:34N 47°38' W 122°23'0 0.0
2017-Feb-21 10:34N 47°38' W 122°23'0 0.0
2017-Feb-21 09:34N 47°38' W 122°23'0 0.0
2017-Feb-21 08:34N 47°38' W 122°23'0 0.0
2017-Feb-21 07:34N 47°38' W 122°23'0 0.0
2017-Feb-21 06:34N 47°38' W 122°23'0 0.0
2017-Feb-21 05:34N 47°38' W 122°23'0 0.0
2017-Feb-21 04:33N 47°38' W 122°23'0 0.0
2017-Feb-21 03:34N 47°38' W 122°23'0 0.0
2017-Feb-21 02:33N 47°38' W 122°23'0 0.0
2017-Feb-21 01:34N 47°38' W 122°23'0 0.0
2017-Feb-21 00:34N 47°38' W 122°23'0 0.0
2017-Feb-20 23:34N 47°38' W 122°23'0 0.4
2017-Feb-20 22:34N 47°38' W 122°23'7 7.0
2017-Feb-20 21:33N 47°34' W 122°33'0 0.0
2017-Feb-20 20:34N 47°34' W 122°33'0 0.0
2017-Feb-20 19:34N 47°34' W 122°33'0 0.0
2017-Feb-20 18:33N 47°34' W 122°33'0 0.0
2017-Feb-20 17:33N 47°34' W 122°33'5 5.0
2017-Feb-20 16:34N 47°36' W 122°26'2 2.4
2017-Feb-20 15:34N 47°38' W 122°23'0 0.0
2017-Feb-20 14:34N 47°38' W 122°23'0 0.0
2017-Feb-20 13:34N 47°38' W 122°23'0 0.0
2017-Feb-20 12:34N 47°38' W 122°23'0 0.0
2017-Feb-20 11:34N 47°38' W 122°23'0 0.0
2017-Feb-20 10:34N 47°38' W 122°23'0 0.0
2017-Feb-20 09:34N 47°38' W 122°23'0 0.0
2017-Feb-20 08:34N 47°38' W 122°23'0 0.0
2017-Feb-20 07:34N 47°38' W 122°23'0 0.0
2017-Feb-20 06:34N 47°38' W 122°23'0 0.0
2017-Feb-20 05:34N 47°38' W 122°23'0 0.0
2017-Feb-20 04:34N 47°38' W 122°23'0 0.0
2017-Feb-20 03:34N 47°38' W 122°23'0 0.0
2017-Feb-20 02:34N 47°38' W 122°23'0 0.0
2017-Feb-20 01:34N 47°38' W 122°23'0 0.0
2017-Feb-20 00:34N 47°38' W 122°23'0 0.0
2017-Feb-19 23:34N 47°38' W 122°23'0 0.0
2017-Feb-19 22:34N 47°38' W 122°23'0 0.0
2017-Feb-19 21:34N 47°38' W 122°23'0 0.0
2017-Feb-19 20:34N 47°38' W 122°23'0 0.0
2017-Feb-19 19:34N 47°38' W 122°23'0 0.0
2017-Feb-19 18:33N 47°38' W 122°23'0 0.0
2017-Feb-19 17:34N 47°38' W 122°23'0 0.0
2017-Feb-19 16:34N 47°38' W 122°23'0 0.0
2017-Feb-19 15:34N 47°38' W 122°23'0 0.0
2017-Feb-19 14:34N 47°38' W 122°23'0 0.0
2017-Feb-19 13:34N 47°38' W 122°23'0 0.0
2017-Feb-19 12:34N 47°38' W 122°23'0 0.0
2017-Feb-19 11:34N 47°38' W 122°23'0 0.0
2017-Feb-19 10:34N 47°38' W 122°23'0 0.0
2017-Feb-19 09:34N 47°38' W 122°23'0 0.0
2017-Feb-19 08:34N 47°38' W 122°23'0 0.0
2017-Feb-19 07:34N 47°38' W 122°23'0 0.0
2017-Feb-19 06:34N 47°38' W 122°23'0 0.0
2017-Feb-19 05:34N 47°38' W 122°23'0 0.0
2017-Feb-19 04:34N 47°38' W 122°23'0 0.0
2017-Feb-19 03:34N 47°38' W 122°23'0 0.0
2017-Feb-19 02:34N 47°38' W 122°23'0 0.0
2017-Feb-19 01:34N 47°38' W 122°23'0 0.0
2017-Feb-19 00:34N 47°38' W 122°23'0 0.0
2017-Feb-18 23:34N 47°38' W 122°23'0 0.0
2017-Feb-18 22:34N 47°38' W 122°23'0 0.0
2017-Feb-18 21:34N 47°38' W 122°23'0 0.0
2017-Feb-18 20:34N 47°38' W 122°23'0 0.0
2017-Feb-18 19:33N 47°38' W 122°23'0 0.0
2017-Feb-18 18:34N 47°38' W 122°23'0 0.0
2017-Feb-18 17:34N 47°38' W 122°23'0 0.0
2017-Feb-18 16:34N 47°38' W 122°23'0 0.0
2017-Feb-18 15:34N 47°38' W 122°23'0 0.0
2017-Feb-18 14:34N 47°38' W 122°23'0 0.0
2017-Feb-18 13:34N 47°38' W 122°23'0 0.0
2017-Feb-18 12:34N 47°38' W 122°23'0 0.0
2017-Feb-18 11:34N 47°38' W 122°23'0 0.0
2017-Feb-18 10:34N 47°38' W 122°23'0 0.0
2017-Feb-18 09:34N 47°38' W 122°23'0 0.0
2017-Feb-18 08:34N 47°38' W 122°23'0 0.0
2017-Feb-18 07:34N 47°38' W 122°23'0 0.0
2017-Feb-18 06:34N 47°38' W 122°23'0 0.0
2017-Feb-18 05:34N 47°38' W 122°23'0 0.0
2017-Feb-18 04:34N 47°38' W 122°23'0 0.0
2017-Feb-18 03:34N 47°38' W 122°23'0 0.0
2017-Feb-18 02:33N 47°38' W 122°23'0 0.0
2017-Feb-18 01:33N 47°38' W 122°23'0 0.0
2017-Feb-18 00:34N 47°38' W 122°23'0 0.0
2017-Feb-17 23:33N 47°38' W 122°23'0 0.0
2017-Feb-17 22:34N 47°38' W 122°23'0 0.0
2017-Feb-17 21:34N 47°38' W 122°23'0 0.0
2017-Feb-17 20:34N 47°38' W 122°23'0 0.0
2017-Feb-17 19:34N 47°38' W 122°23'0 0.0
2017-Feb-17 18:34N 47°38' W 122°23'0 0.0
2017-Feb-17 17:34N 47°38' W 122°23'0 0.0
2017-Feb-17 16:34N 47°38' W 122°23'0 0.0
2017-Feb-17 15:34N 47°38' W 122°23'0 0.0
2017-Feb-17 14:34N 47°38' W 122°23'0 0.0
2017-Feb-17 13:34N 47°38' W 122°23'0 0.0
2017-Feb-17 12:34N 47°38' W 122°23'0 0.0
2017-Feb-17 11:34N 47°38' W 122°23'0 0.0
2017-Feb-17 10:34N 47°38' W 122°23'0 0.0
2017-Feb-17 09:34N 47°38' W 122°23'0 0.0
2017-Feb-17 08:34N 47°38' W 122°23'0 0.0
2017-Feb-17 07:34N 47°38' W 122°23'0 0.0
2017-Feb-17 06:34N 47°38' W 122°23'0 0.0
2017-Feb-17 05:34N 47°38' W 122°23'0 0.0
2017-Feb-17 04:34N 47°38' W 122°23'0 0.0
2017-Feb-17 03:34N 47°38' W 122°23'0 0.0
2017-Feb-17 02:34N 47°38' W 122°23'0 0.0
2017-Feb-17 01:34N 47°38' W 122°23'0 0.0
2017-Feb-17 00:34N 47°38' W 122°23'0 0.0
2017-Feb-16 23:34N 47°38' W 122°23'0 0.0
2017-Feb-16 22:34N 47°38' W 122°23'0 0.0
2017-Feb-16 21:34N 47°38' W 122°23'0 0.0
2017-Feb-16 20:34N 47°38' W 122°23'0 0.0
2017-Feb-16 19:34N 47°38' W 122°23'0 0.0
2017-Feb-16 18:34N 47°38' W 122°23'0 0.0
2017-Feb-16 17:34N 47°38' W 122°23'0 0.0
2017-Feb-16 16:34N 47°38' W 122°23'0 0.0
2017-Feb-16 15:34N 47°38' W 122°23'0 0.0
2017-Feb-16 14:34N 47°38' W 122°23'0 0.0
2017-Feb-16 13:34N 47°38' W 122°23'0 0.0
2017-Feb-16 12:34N 47°38' W 122°23'0 0.0
2017-Feb-16 11:34N 47°38' W 122°23'0 0.0
2017-Feb-16 10:34N 47°38' W 122°23'0 0.0
2017-Feb-16 09:34N 47°38' W 122°23'0 0.0
2017-Feb-16 08:34N 47°38' W 122°23'0 0.0
2017-Feb-16 07:34N 47°38' W 122°23'0 0.0
2017-Feb-16 06:34N 47°38' W 122°23'0 0.0
2017-Feb-16 05:34N 47°38' W 122°23'0 0.0
2017-Feb-16 04:34N 47°38' W 122°23'0 0.0
2017-Feb-16 03:34N 47°38' W 122°23'0 0.0
2017-Feb-16 02:34N 47°38' W 122°23'0 0.0
2017-Feb-16 01:34N 47°38' W 122°23'0 0.0
2017-Feb-16 00:34N 47°38' W 122°23'0 0.0
2017-Feb-15 23:34N 47°38' W 122°23'0 0.0
2017-Feb-15 22:34N 47°38' W 122°23'3 2.6
2017-Feb-15 21:34N 47°36' W 122°26'5 4.9
2017-Feb-15 20:34N 47°34' W 122°33'0 0.0
2017-Feb-15 19:34N 47°34' W 122°33'0 0.0
2017-Feb-15 18:34N 47°34' W 122°33'0 0.0
2017-Feb-15 17:34N 47°34' W 122°33'4 4.2
2017-Feb-15 16:34N 47°36' W 122°27'3 3.1
2017-Feb-15 15:34N 47°38' W 122°23'0 0.0
2017-Feb-15 14:34N 47°38' W 122°23'0 0.0
2017-Feb-15 13:34N 47°38' W 122°23'0 0.0
2017-Feb-15 12:34N 47°38' W 122°23'0 0.0
2017-Feb-15 11:34N 47°38' W 122°23'0 0.0
2017-Feb-15 10:34N 47°38' W 122°23'0 0.0
2017-Feb-15 09:34N 47°38' W 122°23'0 0.0
2017-Feb-15 08:34N 47°38' W 122°23'0 0.0
2017-Feb-15 07:34N 47°38' W 122°23'0 0.0
2017-Feb-15 06:34N 47°38' W 122°23'0 0.0
2017-Feb-15 05:34N 47°38' W 122°23'0 0.0
2017-Feb-15 04:34N 47°38' W 122°23'0 0.0
2017-Feb-15 03:34N 47°38' W 122°23'0 0.0
2017-Feb-15 02:34N 47°38' W 122°23'0 0.0
2017-Feb-15 01:34N 47°38' W 122°23'0 0.0
2017-Feb-15 00:34N 47°38' W 122°23'0 0.0
2017-Feb-14 23:34N 47°38' W 122°23'0 0.0
2017-Feb-14 22:34N 47°38' W 122°23'0 0.0
2017-Feb-14 21:34N 47°38' W 122°23'0 0.0
2017-Feb-14 20:34N 47°38' W 122°23'0 0.0
2017-Feb-14 19:34N 47°38' W 122°23'0 0.0
2017-Feb-14 18:34N 47°38' W 122°23'0 0.0
2017-Feb-14 17:34N 47°38' W 122°23'0 0.0
2017-Feb-14 16:34N 47°38' W 122°23'0 0.0
2017-Feb-14 15:34N 47°38' W 122°23'0 0.0
2017-Feb-14 14:34N 47°38' W 122°23'0 0.0
2017-Feb-14 13:34N 47°38' W 122°23'0 0.0
2017-Feb-14 12:34N 47°38' W 122°23'0 0.0
2017-Feb-14 11:34N 47°38' W 122°23'0 0.0
2017-Feb-14 10:34N 47°38' W 122°23'0 0.0
2017-Feb-14 09:34N 47°38' W 122°23'0 0.0
2017-Feb-14 08:34N 47°38' W 122°23'0 0.0
2017-Feb-14 07:34N 47°38' W 122°23'0 0.0
2017-Feb-14 06:34N 47°38' W 122°23'0 0.0
2017-Feb-14 05:34N 47°38' W 122°23'0 0.0
2017-Feb-14 04:33N 47°38' W 122°23'0 0.0
2017-Feb-14 03:34N 47°38' W 122°23'0 0.0
2017-Feb-14 02:34N 47°38' W 122°23'0 0.0
2017-Feb-14 01:34N 47°38' W 122°23'0 0.0
2017-Feb-14 00:34N 47°38' W 122°23'0 0.0
2017-Feb-13 23:34N 47°38' W 122°23'0 0.0
2017-Feb-13 22:34N 47°38' W 122°23'7 7.3
2017-Feb-13 21:34N 47°34' W 122°33'0 0.1
2017-Feb-13 20:34N 47°34' W 122°33'0 0.0
2017-Feb-13 19:34N 47°34' W 122°33'0 0.0
2017-Feb-13 18:34N 47°34' W 122°33'0 0.0
2017-Feb-13 17:33N 47°34' W 122°33'4 3.7
2017-Feb-13 16:34N 47°36' W 122°27'4 3.8
2017-Feb-13 15:34N 47°38' W 122°23'0 0.0
2017-Feb-13 14:34N 47°38' W 122°23'0 0.0
2017-Feb-13 13:34N 47°38' W 122°23'0 0.0
2017-Feb-13 12:34N 47°38' W 122°23'0 0.0
2017-Feb-13 11:34N 47°38' W 122°23'0 0.0
2017-Feb-13 10:34N 47°38' W 122°23'0 0.0
2017-Feb-13 09:34N 47°38' W 122°23'0 0.0
2017-Feb-13 08:34N 47°38' W 122°23'  
Track history (hours):
 
Tides and Currents Weather Stations Pressure Air Temp Water Temp Dewpoint Dewpoint Depression Visibility Wind Speed Wind Dir Waves Ship Positions

F/V Harvestor

Owner: F/V HARVESTOR INC., EDMONDS, WA. More information available from US FCC via Universal Licensing System and Coast Guard Vessel Documentation Center.

Last reported at 2017-Feb-23 08:34 UTC. Time now 2017-Feb-23 09:28 UTC.
Position N 47°38' W 122°23'.

Length 40 m.

Type: Fishing. MMSI: 367083650.

Date/timePositionNaut miles runAvg speedWind from/ knotsBaromVisibWave heightAir tempDewpointWater temp
2017-Feb-23 08:34N 47°38' W 122°23'0 0.0
2017-Feb-23 07:34N 47°38' W 122°23'0 0.0
2017-Feb-23 06:34N 47°38' W 122°23'0 0.0
2017-Feb-23 05:34N 47°38' W 122°23'0 0.0
2017-Feb-23 04:34N 47°38' W 122°23'0 0.0
2017-Feb-23 03:34N 47°38' W 122°23'0 0.0
2017-Feb-23 02:34N 47°38' W 122°23'0 0.0
2017-Feb-23 01:34N 47°38' W 122°23'0 0.0
2017-Feb-23 00:34N 47°38' W 122°23'0 0.0
2017-Feb-22 23:34N 47°38' W 122°23'2 2.1
2017-Feb-22 22:34N 47°37' W 122°25'5 5.2
2017-Feb-22 21:34N 47°34' W 122°32'0 0.0
2017-Feb-22 20:34N 47°34' W 122°32'0 0.0
2017-Feb-22 19:34N 47°34' W 122°32'0 0.0
2017-Feb-22 18:34N 47°34' W 122°32'0 0.0
2017-Feb-22 17:34N 47°34' W 122°32'3 3.1
2017-Feb-22 16:34N 47°35' W 122°28'4 4.3
2017-Feb-22 15:34N 47°38' W 122°23'0 0.0
2017-Feb-22 14:34N 47°38' W 122°23'0 0.0
2017-Feb-22 13:34N 47°38' W 122°23'0 0.0
2017-Feb-22 12:34N 47°38' W 122°23'0 0.0
2017-Feb-22 11:34N 47°38' W 122°23'0 0.0
2017-Feb-22 10:34N 47°38' W 122°23'0 0.0
2017-Feb-22 09:34N 47°38' W 122°23'0 0.0
2017-Feb-22 08:34N 47°38' W 122°23'0 0.0
2017-Feb-22 07:34N 47°38' W 122°23'0 0.0
2017-Feb-22 06:34N 47°38' W 122°23'0 0.0
2017-Feb-22 05:34N 47°38' W 122°23'0 0.0
2017-Feb-22 04:34N 47°38' W 122°23'0 0.0
2017-Feb-22 03:34N 47°38' W 122°23'0 0.0
2017-Feb-22 02:34N 47°38' W 122°23'0 0.0
2017-Feb-22 01:34N 47°38' W 122°23'0 0.0
2017-Feb-22 00:34N 47°38' W 122°23'0 0.0
2017-Feb-21 23:33N 47°38' W 122°23'0 0.0
2017-Feb-21 22:34N 47°38' W 122°23'0 0.0
2017-Feb-21 21:34N 47°38' W 122°23'0 0.0
2017-Feb-21 20:34N 47°38' W 122°23'0 0.0
2017-Feb-21 19:34N 47°38' W 122°23'0 0.0
2017-Feb-21 18:34N 47°38' W 122°23'0 0.0
2017-Feb-21 17:34N 47°38' W 122°23'0 0.0
2017-Feb-21 16:34N 47°38' W 122°23'0 0.0
2017-Feb-21 15:34N 47°38' W 122°23'0 0.0
2017-Feb-21 14:34N 47°38' W 122°23'0 0.0
2017-Feb-21 13:34N 47°38' W 122°23'0 0.0
2017-Feb-21 12:34N 47°38' W 122°23'0 0.0
2017-Feb-21 11:34N 47°38' W 122°23'0 0.0
2017-Feb-21 10:34N 47°38' W 122°23'0 0.0
2017-Feb-21 09:34N 47°38' W 122°23'0 0.0
2017-Feb-21 08:34N 47°38' W 122°23'0 0.0
2017-Feb-21 07:34N 47°38' W 122°23'0 0.0
2017-Feb-21 06:34N 47°38' W 122°23'0 0.0
2017-Feb-21 05:34N 47°38' W 122°23'0 0.0
2017-Feb-21 04:33N 47°38' W 122°23'0 0.0
2017-Feb-21 03:34N 47°38' W 122°23'0 0.0
2017-Feb-21 02:33N 47°38' W 122°23'0 0.0
2017-Feb-21 01:34N 47°38' W 122°23'0 0.0
2017-Feb-21 00:34N 47°38' W 122°23'0 0.0
2017-Feb-20 23:34N 47°38' W 122°23'0 0.4
2017-Feb-20 22:34N 47°38' W 122°23'7 7.0
2017-Feb-20 21:33N 47°34' W 122°33'0 0.0
2017-Feb-20 20:34N 47°34' W 122°33'0 0.0
2017-Feb-20 19:34N 47°34' W 122°33'0 0.0
2017-Feb-20 18:33N 47°34' W 122°33'0 0.0
2017-Feb-20 17:33N 47°34' W 122°33'5 5.0
2017-Feb-20 16:34N 47°36' W 122°26'2 2.4
2017-Feb-20 15:34N 47°38' W 122°23'0 0.0
2017-Feb-20 14:34N 47°38' W 122°23'0 0.0
2017-Feb-20 13:34N 47°38' W 122°23'0 0.0
2017-Feb-20 12:34N 47°38' W 122°23'0 0.0
2017-Feb-20 11:34N 47°38' W 122°23'0 0.0
2017-Feb-20 10:34N 47°38' W 122°23'0 0.0
2017-Feb-20 09:34N 47°38' W 122°23'0 0.0
2017-Feb-20 08:34N 47°38' W 122°23'0 0.0
2017-Feb-20 07:34N 47°38' W 122°23'0 0.0
2017-Feb-20 06:34N 47°38' W 122°23'0 0.0
2017-Feb-20 05:34N 47°38' W 122°23'0 0.0
2017-Feb-20 04:34N 47°38' W 122°23'0 0.0
2017-Feb-20 03:34N 47°38' W 122°23'0 0.0
2017-Feb-20 02:34N 47°38' W 122°23'0 0.0
2017-Feb-20 01:34N 47°38' W 122°23'0 0.0
2017-Feb-20 00:34N 47°38' W 122°23'0 0.0
2017-Feb-19 23:34N 47°38' W 122°23'0 0.0
2017-Feb-19 22:34N 47°38' W 122°23'0 0.0
2017-Feb-19 21:34N 47°38' W 122°23'0 0.0
2017-Feb-19 20:34N 47°38' W 122°23'0 0.0
2017-Feb-19 19:34N 47°38' W 122°23'0 0.0
2017-Feb-19 18:33N 47°38' W 122°23'0 0.0
2017-Feb-19 17:34N 47°38' W 122°23'0 0.0
2017-Feb-19 16:34N 47°38' W 122°23'0 0.0
2017-Feb-19 15:34N 47°38' W 122°23'0 0.0
2017-Feb-19 14:34N 47°38' W 122°23'0 0.0
2017-Feb-19 13:34N 47°38' W 122°23'0 0.0
2017-Feb-19 12:34N 47°38' W 122°23'0 0.0
2017-Feb-19 11:34N 47°38' W 122°23'0 0.0
2017-Feb-19 10:34N 47°38' W 122°23'0 0.0
2017-Feb-19 09:34N 47°38' W 122°23'0 0.0
2017-Feb-19 08:34N 47°38' W 122°23'0 0.0
2017-Feb-19 07:34N 47°38' W 122°23'0 0.0
2017-Feb-19 06:34N 47°38' W 122°23'0 0.0
2017-Feb-19 05:34N 47°38' W 122°23'0 0.0
2017-Feb-19 04:34N 47°38' W 122°23'0 0.0
2017-Feb-19 03:34N 47°38' W 122°23'0 0.0
2017-Feb-19 02:34N 47°38' W 122°23'0 0.0
2017-Feb-19 01:34N 47°38' W 122°23'0 0.0
2017-Feb-19 00:34N 47°38' W 122°23'0 0.0
2017-Feb-18 23:34N 47°38' W 122°23'0 0.0
2017-Feb-18 22:34N 47°38' W 122°23'0 0.0
2017-Feb-18 21:34N 47°38' W 122°23'0 0.0
2017-Feb-18 20:34N 47°38' W 122°23'0 0.0
2017-Feb-18 19:33N 47°38' W 122°23'0 0.0
2017-Feb-18 18:34N 47°38' W 122°23'0 0.0
2017-Feb-18 17:34N 47°38' W 122°23'0 0.0
2017-Feb-18 16:34N 47°38' W 122°23'0 0.0
2017-Feb-18 15:34N 47°38' W 122°23'0 0.0
2017-Feb-18 14:34N 47°38' W 122°23'0 0.0
2017-Feb-18 13:34N 47°38' W 122°23'0 0.0
2017-Feb-18 12:34N 47°38' W 122°23'0 0.0
2017-Feb-18 11:34N 47°38' W 122°23'0 0.0
2017-Feb-18 10:34N 47°38' W 122°23'0 0.0
2017-Feb-18 09:34N 47°38' W 122°23'0 0.0
2017-Feb-18 08:34N 47°38' W 122°23'0 0.0
2017-Feb-18 07:34N 47°38' W 122°23'0 0.0
2017-Feb-18 06:34N 47°38' W 122°23'0 0.0
2017-Feb-18 05:34N 47°38' W 122°23'0 0.0
2017-Feb-18 04:34N 47°38' W 122°23'0 0.0
2017-Feb-18 03:34N 47°38' W 122°23'0 0.0
2017-Feb-18 02:33N 47°38' W 122°23'0 0.0
2017-Feb-18 01:33N 47°38' W 122°23'0 0.0
2017-Feb-18 00:34N 47°38' W 122°23'0 0.0
2017-Feb-17 23:33N 47°38' W 122°23'0 0.0
2017-Feb-17 22:34N 47°38' W 122°23'0 0.0
2017-Feb-17 21:34N 47°38' W 122°23'0 0.0
2017-Feb-17 20:34N 47°38' W 122°23'0 0.0
2017-Feb-17 19:34N 47°38' W 122°23'0 0.0
2017-Feb-17 18:34N 47°38' W 122°23'0 0.0
2017-Feb-17 17:34N 47°38' W 122°23'0 0.0
2017-Feb-17 16:34N 47°38' W 122°23'0 0.0
2017-Feb-17 15:34N 47°38' W 122°23'0 0.0
2017-Feb-17 14:34N 47°38' W 122°23'0 0.0
2017-Feb-17 13:34N 47°38' W 122°23'0 0.0
2017-Feb-17 12:34N 47°38' W 122°23'0 0.0
2017-Feb-17 11:34N 47°38' W 122°23'0 0.0
2017-Feb-17 10:34N 47°38' W 122°23'0 0.0
2017-Feb-17 09:34N 47°38' W 122°23'0 0.0
2017-Feb-17 08:34N 47°38' W 122°23'0 0.0
2017-Feb-17 07:34N 47°38' W 122°23'0 0.0
2017-Feb-17 06:34N 47°38' W 122°23'0 0.0
2017-Feb-17 05:34N 47°38' W 122°23'0 0.0
2017-Feb-17 04:34N 47°38' W 122°23'0 0.0
2017-Feb-17 03:34N 47°38' W 122°23'0 0.0
2017-Feb-17 02:34N 47°38' W 122°23'0 0.0
2017-Feb-17 01:34N 47°38' W 122°23'0 0.0
2017-Feb-17 00:34N 47°38' W 122°23'0 0.0
2017-Feb-16 23:34N 47°38' W 122°23'0 0.0
2017-Feb-16 22:34N 47°38' W 122°23'0 0.0
2017-Feb-16 21:34N 47°38' W 122°23'0 0.0
2017-Feb-16 20:34N 47°38' W 122°23'0 0.0
2017-Feb-16 19:34N 47°38' W 122°23'0 0.0
2017-Feb-16 18:34N 47°38' W 122°23'0 0.0
2017-Feb-16 17:34N 47°38' W 122°23'0 0.0
2017-Feb-16 16:34N 47°38' W 122°23'0 0.0
2017-Feb-16 15:34N 47°38' W 122°23'0 0.0
2017-Feb-16 14:34N 47°38' W 122°23'0 0.0
2017-Feb-16 13:34N 47°38' W 122°23'0 0.0
2017-Feb-16 12:34N 47°38' W 122°23'0 0.0
2017-Feb-16 11:34N 47°38' W 122°23'0 0.0
2017-Feb-16 10:34N 47°38' W 122°23'0 0.0
2017-Feb-16 09:34N 47°38' W 122°23'0 0.0
2017-Feb-16 08:34N 47°38' W 122°23'0 0.0
2017-Feb-16 07:34N 47°38' W 122°23'0 0.0
2017-Feb-16 06:34N 47°38' W 122°23'0 0.0
2017-Feb-16 05:34N 47°38' W 122°23'0 0.0
2017-Feb-16 04:34N 47°38' W 122°23'0 0.0
2017-Feb-16 03:34N 47°38' W 122°23'0 0.0
2017-Feb-16 02:34N 47°38' W 122°23'0 0.0
2017-Feb-16 01:34N 47°38' W 122°23'0 0.0
2017-Feb-16 00:34N 47°38' W 122°23'0 0.0
2017-Feb-15 23:34N 47°38' W 122°23'0 0.0
2017-Feb-15 22:34N 47°38' W 122°23'3 2.6
2017-Feb-15 21:34N 47°36' W 122°26'5 4.9
2017-Feb-15 20:34N 47°34' W 122°33'0 0.0
2017-Feb-15 19:34N 47°34' W 122°33'0 0.0
2017-Feb-15 18:34N 47°34' W 122°33'0 0.0
2017-Feb-15 17:34N 47°34' W 122°33'4 4.2
2017-Feb-15 16:34N 47°36' W 122°27'3 3.1
2017-Feb-15 15:34N 47°38' W 122°23'0 0.0
2017-Feb-15 14:34N 47°38' W 122°23'0 0.0
2017-Feb-15 13:34N 47°38' W 122°23'0 0.0
2017-Feb-15 12:34N 47°38' W 122°23'0 0.0
2017-Feb-15 11:34N 47°38' W 122°23'0 0.0
2017-Feb-15 10:34N 47°38' W 122°23'0 0.0
2017-Feb-15 09:34N 47°38' W 122°23'0 0.0
2017-Feb-15 08:34N 47°38' W 122°23'0 0.0
2017-Feb-15 07:34N 47°38' W 122°23'0 0.0
2017-Feb-15 06:34N 47°38' W 122°23'0 0.0
2017-Feb-15 05:34N 47°38' W 122°23'0 0.0
2017-Feb-15 04:34N 47°38' W 122°23'0 0.0
2017-Feb-15 03:34N 47°38' W 122°23'0 0.0
2017-Feb-15 02:34N 47°38' W 122°23'0 0.0
2017-Feb-15 01:34N 47°38' W 122°23'0 0.0
2017-Feb-15 00:34N 47°38' W 122°23'0 0.0
2017-Feb-14 23:34N 47°38' W 122°23'0 0.0
2017-Feb-14 22:34N 47°38' W 122°23'0 0.0
2017-Feb-14 21:34N 47°38' W 122°23'0 0.0
2017-Feb-14 20:34N 47°38' W 122°23'0 0.0
2017-Feb-14 19:34N 47°38' W 122°23'0 0.0
2017-Feb-14 18:34N 47°38' W 122°23'0 0.0
2017-Feb-14 17:34N 47°38' W 122°23'0 0.0
2017-Feb-14 16:34N 47°38' W 122°23'0 0.0
2017-Feb-14 15:34N 47°38' W 122°23'0 0.0
2017-Feb-14 14:34N 47°38' W 122°23'0 0.0
2017-Feb-14 13:34N 47°38' W 122°23'0 0.0
2017-Feb-14 12:34N 47°38' W 122°23'0 0.0
2017-Feb-14 11:34N 47°38' W 122°23'0 0.0
2017-Feb-14 10:34N 47°38' W 122°23'0 0.0
2017-Feb-14 09:34N 47°38' W 122°23'0 0.0
2017-Feb-14 08:34N 47°38' W 122°23'0 0.0
2017-Feb-14 07:34N 47°38' W 122°23'0 0.0
2017-Feb-14 06:34N 47°38' W 122°23'0 0.0
2017-Feb-14 05:34N 47°38' W 122°23'0 0.0
2017-Feb-14 04:33N 47°38' W 122°23'0 0.0
2017-Feb-14 03:34N 47°38' W 122°23'0 0.0
2017-Feb-14 02:34N 47°38' W 122°23'0 0.0
2017-Feb-14 01:34N 47°38' W 122°23'0 0.0
2017-Feb-14 00:34N 47°38' W 122°23'0 0.0
2017-Feb-13 23:34N 47°38' W 122°23'0 0.0
2017-Feb-13 22:34N 47°38' W 122°23'7 7.3
2017-Feb-13 21:34N 47°34' W 122°33'0 0.1
2017-Feb-13 20:34N 47°34' W 122°33'0 0.0
2017-Feb-13 19:34N 47°34' W 122°33'0 0.0
2017-Feb-13 18:34N 47°34' W 122°33'0 0.0
2017-Feb-13 17:33N 47°34' W 122°33'4 3.7
2017-Feb-13 16:34N 47°36' W 122°27'4 3.8
2017-Feb-13 15:34N 47°38' W 122°23'0 0.0
2017-Feb-13 14:34N 47°38' W 122°23'0 0.0
2017-Feb-13 13:34N 47°38' W 122°23'0 0.0
2017-Feb-13 12:34N 47°38' W 122°23'0 0.0
2017-Feb-13 11:34N 47°38' W 122°23'0 0.0
2017-Feb-13 10:34N 47°38' W 122°23'0 0.0
2017-Feb-13 09:34N 47°38' W 122°23'0 0.0
2017-Feb-13 08:34N 47°38' W 122°23'  

Dump ship's entire track history